Map

Track Data

SID SEASON NUMBER BASIN SUBBASIN NAME ISO_TIME NATURE LAT LON WMO_WIND WMO_PRES WMO_AGENCY TRACK_TYPE DIST2LAND LANDFALL IFLAG USA_AGENCY USA_ATCF_ID USA_LAT USA_LON USA_RECORD USA_STATUS USA_WIND USA_PRES USA_SSHS USA_R34_NE USA_R34_SE USA_R34_SW USA_R34_NW USA_R50_NE USA_R50_SE USA_R50_SW USA_R50_NW USA_R64_NE USA_R64_SE USA_R64_SW USA_R64_NW USA_POCI USA_ROCI USA_RMW USA_EYE TOKYO_LAT TOKYO_LON TOKYO_GRADE TOKYO_WIND TOKYO_PRES TOKYO_R50_DIR TOKYO_R50_LONG TOKYO_R50_SHORT TOKYO_R30_DIR TOKYO_R30_LONG TOKYO_R30_SHORT TOKYO_LAND CMA_LAT CMA_LON CMA_CAT CMA_WIND CMA_PRES HKO_LAT HKO_LON HKO_CAT HKO_WIND HKO_PRES NEWDELHI_LAT NEWDELHI_LON NEWDELHI_GRADE NEWDELHI_WIND NEWDELHI_PRES NEWDELHI_CI NEWDELHI_DP NEWDELHI_POCI REUNION_LAT REUNION_LON REUNION_TYPE REUNION_WIND REUNION_PRES REUNION_TNUM REUNION_CI REUNION_RMW REUNION_R34_NE REUNION_R34_SE REUNION_R34_SW REUNION_R34_NW REUNION_R50_NE REUNION_R50_SE REUNION_R50_SW REUNION_R50_NW REUNION_R64_NE REUNION_R64_SE REUNION_R64_SW REUNION_R64_NW BOM_LAT BOM_LON BOM_TYPE BOM_WIND BOM_PRES BOM_TNUM BOM_CI BOM_RMW BOM_R34_NE BOM_R34_SE BOM_R34_SW BOM_R34_NW BOM_R50_NE BOM_R50_SE BOM_R50_SW BOM_R50_NW BOM_R64_NE BOM_R64_SE BOM_R64_SW BOM_R64_NW BOM_ROCI BOM_POCI BOM_EYE BOM_POS_METHOD BOM_PRES_METHOD NADI_LAT NADI_LON NADI_CAT NADI_WIND NADI_PRES WELLINGTON_LAT WELLINGTON_LON WELLINGTON_WIND WELLINGTON_PRES DS824_LAT DS824_LON DS824_STAGE DS824_WIND DS824_PRES TD9636_LAT TD9636_LON TD9636_STAGE TD9636_WIND TD9636_PRES TD9635_LAT TD9635_LON TD9635_WIND TD9635_PRES TD9635_ROCI NEUMANN_LAT NEUMANN_LON NEUMANN_CLASS NEUMANN_WIND NEUMANN_PRES MLC_LAT MLC_LON MLC_CLASS MLC_WIND MLC_PRES USA_GUST BOM_GUST BOM_GUST_PER REUNION_GUST REUNION_GUST_PER USA_SEAHGT USA_SEARAD_NE USA_SEARAD_SE USA_SEARAD_SW USA_SEARAD_NW STORM_SPEED STORM_DIR
1964245N20132 1964 73 WP MM RUBY 1964-09-01 06:00:00 TS 19.9400 131.900 main 1022 960 O_OO_____O_O__ jtwc_wp WP201964 19.9000 132.200 35 0 20.0000 131.000 1 29 1002 20.0000 131.900 TD 30 998 19.9000 132.200 TC 35 19.9000 132.200 35 997 120 12 264
1964245N20132 1964 73 WP MM RUBY 1964-09-01 09:00:00 TS 19.8784 131.260 main 960 885 P_PP_____P_P__ WP201964 19.8654 131.515 40 0 19.8776 130.617 1 29 1002 19.9182 131.135 TD 35 997 19.8654 131.515 TC 40 19.8654 131.515 40 996 150 12 264
1964245N20132 1964 73 WP MM RUBY 1964-09-01 12:00:00 TS 19.8118 130.606 1004 tokyo main 885 822 OOOO_____OOO__ jtwc_wp WP201964 19.8000 130.800 45 0 20.0000 130.500 2 1004 0 0 0 19.8000 130.200 1 29 1002 19.8000 130.400 TS 40 997 19.8000 130.800 TC 45 19.8000 130.800 2 45 19.8000 130.800 45 996 180 13 262
1964245N20132 1964 73 WP MM RUBY 1964-09-01 15:00:00 TS 19.7092 129.935 main 811 748 PPPP_____PPP__ WP201964 19.6925 130.042 50 0 19.7675 129.985 2 999 0 0 19.7924 129.723 1 33 998 19.6348 129.720 TS 45 996 19.6925 130.042 TC 50 19.7333 130.091 2 48 19.6925 130.042 50 995 180 13 261
1964245N20132 1964 73 WP MM RUBY 1964-09-01 18:00:00 TS 19.6237 129.275 995 tokyo main 748 686 OOOO_____OPO__ jtwc_wp WP201964 19.6000 129.300 55 0 19.6000 129.400 9 995 0 0 0 19.8000 129.200 2 38 995 19.5000 129.100 STS 50 996 19.6000 129.300 TC 55 19.6722 129.386 2 52 19.6000 129.300 55 995 180 12 264
1964245N20132 1964 73 WP MM RUBY 1964-09-01 21:00:00 TS 19.5873 128.643 main 675 614 PPPP_____PPP__ WP201964 19.5771 128.635 57 0 19.5351 128.708 9 995 0 0 19.7499 128.657 2 48 993 19.4696 128.543 STS 52 994 19.5771 128.635 TC 57 19.6250 128.688 2 56 19.5771 128.635 57 993 180 12 268
1964245N20132 1964 73 WP MM RUBY 1964-09-02 00:00:00 TS 19.5857 128.014 995 tokyo main 614 552 OOOO_____OOO__ jtwc_wp WP201964 19.6000 128.000 60 0 19.5000 128.000 9 995 0 0 0 19.7000 128.100 3 58 991 19.5000 128.000 STS 55 993 19.6000 128.000 TC 60 19.6000 128.000 2 60 19.6000 128.000 60 991 180 12 271
1964245N20132 1964 73 WP MM RUBY 1964-09-02 03:00:00 TS 19.6032 127.393 main 552 491 PPPP_____PPP__ WP201964 19.6573 127.350 62 0 19.3996 127.392 9 990 0 0 19.6998 127.558 3 58 990 19.5497 127.423 STS 57 991 19.6573 127.350 TC 62 19.6012 127.324 2 61 19.6573 127.350 62 990 210 12 271
1964245N20132 1964 73 WP MM RUBY 1964-09-02 06:00:00 TS 19.6163 126.766 985 tokyo main 491 431 OOOO_____OPO__ jtwc_wp WP201964 19.7000 126.700 65 1 19.3000 126.800 9 985 0 0 0 19.7000 127.000 3 58 989 19.6000 126.800 STS 60 989 19.7000 126.700 TC 65 19.6142 126.664 2 62 19.7000 126.700 65 989 240 12 270
1964245N20132 1964 73 WP MM RUBY 1964-09-02 09:00:00 TS 19.5942 126.117 main 421 358 PPPP_____PPP__ WP201964 19.6723 126.042 65 1 19.2423 126.165 9 981 0 0 19.6498 126.415 3 58 988 19.6301 126.093 STS 62 986 19.6723 126.042 TC 65 19.6201 126.021 2 63 19.6723 126.042 65 987 270 12 267
1964245N20132 1964 73 WP MM RUBY 1964-09-02 12:00:00 TS 19.5429 125.471 978 tokyo main 358 299 OOOO_____OOO__ jtwc_wp WP201964 19.6000 125.400 65 1 19.2000 125.500 9 978 0 0 0 19.6000 125.800 3 58 987 19.6000 125.400 T 65 984 19.6000 125.400 TC 65 19.6000 125.400 3 65 19.6000 125.400 65 985 300 12 264
1964245N20132 1964 73 WP MM RUBY 1964-09-02 15:00:00 TS 19.4661 124.846 main 290 238 PPPP_____PPP__ WP201964 19.5073 124.785 65 1 19.1500 124.793 9 975 0 0 19.6223 125.158 3 58 985 19.4645 124.835 T 65 982 19.5073 124.785 TC 65 19.5040 124.778 3 66 19.5073 124.785 65 983 300 12 261
1964245N20132 1964 73 WP MM RUBY 1964-09-02 18:00:00 TS 19.3692 124.240 972 tokyo main 229 178 OOOO_____OPO__ jtwc_wp WP201964 19.4000 124.200 65 1 19.1000 124.100 9 972 0 0 0 19.6000 124.500 3 58 984 19.3000 124.300 T 65 981 19.4000 124.200 TC 65 19.3846 124.181 3 67 19.4000 124.200 65 982 300 12 259
1964245N20132 1964 73 WP MM RUBY 1964-09-02 21:00:00 TS 19.2465 123.636 main 163 122 PPPP_____PPP__ WP201964 19.2774 123.620 67 1 19.0423 123.462 9 971 0 0 19.4075 123.827 3 63 983 19.1701 123.685 T 65 980 19.2774 123.620 TC 67 19.2729 123.619 3 68 19.2774 123.620 67 981 330 11 259
1964245N20132 1964 73 WP MM RUBY 1964-09-03 00:00:00 TS 19.1571 123.086 970 tokyo main 122 94 OOOO_____OOO__ jtwc_wp WP201964 19.2000 123.100 70 1 19.0000 122.900 9 970 0 0 0 19.2000 123.200 4 68 982 19.1000 123.100 T 65 980 19.2000 123.100 TC 70 19.2000 123.100 4 70 19.2000 123.100 70 980 360 10 265
1964245N20132 1964 73 WP MM RUBY 1964-09-03 03:00:00 TS 19.1610 122.630 main 94 89 PPPP_____PPP__ WP201964 19.2272 122.685 72 1 18.9849 122.398 9 975 0 0 19.1197 122.678 4 68 981 19.1272 122.628 T 65 980 19.2272 122.685 TC 72 19.2139 122.649 4 71 19.2272 122.685 72 980 330 8 274
1964245N20132 1964 73 WP MM RUBY 1964-09-03 06:00:00 TS 19.2098 122.219 980 tokyo main 89 89 OOOO_____OPO__ jtwc_wp WP201964 19.3000 122.300 75 1 19.0000 122.000 9 980 0 0 0 19.1000 122.200 4 68 981 19.2000 122.200 T 65 981 19.3000 122.300 TC 75 19.2685 122.236 4 72 19.3000 122.300 75 980 300 8 277
1964245N20132 1964 73 WP MM RUBY 1964-09-03 09:00:00 TS 19.2554 121.811 main 98 89 PPPP_____PPP__ WP201964 19.3573 121.873 75 1 19.0421 121.757 9 980 0 0 19.0849 121.700 4 68 981 19.2497 121.772 T 65 980 19.3573 121.873 TC 75 19.3389 121.830 4 73 19.3573 121.873 75 980 270 8 276
1964245N20132 1964 73 WP MM RUBY 1964-09-03 12:00:00 TS 19.3000 121.371 980 tokyo main 89 78 OOOO_____OOO__ jtwc_wp WP201964 19.4000 121.400 75 1 19.1000 121.500 9 980 0 0 0 19.1000 121.200 4 68 981 19.3000 121.300 T 65 980 19.4000 121.400 TC 75 19.4000 121.400 4 75 19.4000 121.400 75 980 240 9 274
1964245N20132 1964 73 WP MM RUBY 1964-09-03 15:00:00 TS 19.3197 120.847 main 78 78 PPPP_____PPP__ WP201964 19.4075 120.857 75 1 19.1574 121.060 9 980 0 0 19.1423 120.708 4 68 980 19.3577 120.700 T 67 980 19.4075 120.857 TC 75 19.3577 120.890 4 75 19.4075 120.857 75 979 240 10 272
1964245N20132 1964 73 WP MM RUBY 1964-09-03 18:00:00 TS 19.3300 120.294 980 tokyo main 94 94 OOOO_____OPO__ jtwc_wp WP201964 19.4000 120.300 75 1 19.2000 120.500 9 980 0 0 0 19.2000 120.200 4 68 980 19.4000 120.100 T 70 980 19.4000 120.300 TC 75 19.3103 120.355 4 75 19.4000 120.300 75 979 240 10 269
1964245N20132 1964 73 WP MM RUBY 1964-09-03 21:00:00 TS 19.3078 119.759 main 131 131 PPPP_____PPP__ WP201964 19.3549 119.785 75 1 19.1776 119.857 9 981 0 0 19.2350 119.650 4 68 979 19.3696 119.635 T 70 980 19.3549 119.785 TC 75 19.3077 119.818 4 75 19.3549 119.785 75 979 240 10 272
1964245N20132 1964 73 WP MM RUBY 1964-09-04 00:00:00 TS 19.3571 119.243 982 tokyo main 184 184 OOOO_____OOO__ jtwc_wp WP201964 19.4000 119.300 75 1 19.2000 119.200 9 982 0 0 0 19.3000 119.100 4 68 979 19.4000 119.200 T 70 980 19.4000 119.300 TC 75 19.4000 119.300 4 75 19.4000 119.300 75 979 240 10 285
1964245N20132 1964 73 WP MM RUBY 1964-09-04 03:00:00 TS 19.5645 118.761 main 232 232 PPPP_____PPP__ WP201964 19.6398 118.843 80 1 19.3697 118.635 9 982 0 0 19.4198 118.592 4 68 978 19.5824 118.707 T 72 977 19.6398 118.843 TC 80 19.6603 118.861 4 80 19.6398 118.843 80 975 240 10 300
1964245N20132 1964 73 WP MM RUBY 1964-09-04 06:00:00 TS 19.8737 118.291 983 tokyo main 294 294 OOOO_____OPO__ jtwc_wp WP201964 20.0000 118.400 85 2 19.6000 118.100 9 983 0 0 0 19.6000 118.100 4 68 977 19.9000 118.200 T 75 975 20.0000 118.400 TC 85 20.0157 118.438 4 85 20.0000 118.400 85 971 240 11 307
1964245N20132 1964 73 WP MM RUBY 1964-09-04 09:00:00 TS 20.2270 117.825 main 330 273 PPPP_____PPP__ WP201964 20.3996 117.980 90 2 19.7924 117.542 9 983 0 0 19.8199 117.600 4 72 974 20.3649 117.700 T 80 972 20.3996 117.980 TC 90 20.4133 117.995 4 90 20.3996 117.980 90 967 210 12 308
1964245N20132 1964 73 WP MM RUBY 1964-09-04 12:00:00 TS 20.5857 117.329 983 tokyo main 270 224 OOOO_____OOO__ jtwc_wp WP201964 20.8000 117.500 95 2 20.0000 117.000 9 983 0 0 0 20.1000 117.100 4 77 972 20.8000 117.200 ST 85 970 20.8000 117.500 TC 95 20.8000 117.500 4 95 20.8000 117.500 95 963 180 12 303
1964245N20132 1964 73 WP MM RUBY 1964-09-04 15:00:00 TS 20.8767 116.764 main 224 183 PPPP_____PPP__ WP201964 21.1226 116.880 100 3 20.2123 116.492 9 983 0 0 20.4498 116.608 4 82 967 21.0022 116.715 ST 90 967 21.1226 116.880 TC 100 21.1052 116.895 4 100 21.1226 116.880 100 963 180 12 297
1964245N20132 1964 73 WP MM RUBY 1964-09-04 18:00:00 TS 21.1412 116.162 983 tokyo main 183 142 OOOO_____OPO__ jtwc_wp WP201964 21.4000 116.200 105 3 20.5000 116.000 9 983 0 0 0 20.8000 116.100 5 87 963 21.1000 116.200 ST 95 965 21.4000 116.200 TC 105 21.3882 116.237 4 105 21.4000 116.200 105 963 180 12 295
1964245N20132 1964 73 WP MM RUBY 1964-09-04 21:00:00 TS 21.4044 115.555 main 142 101 PPPP_____PPP__ WP201964 21.6648 115.542 110 3 20.9797 115.516 9 983 0 0 21.0423 115.564 5 87 961 21.1624 115.614 ST 100 962 21.6648 115.542 TC 110 21.6520 115.561 4 110 21.6648 115.542 110 963 180 12 294
1964245N20132 1964 73 WP MM RUBY 1964-09-05 00:00:00 TS 21.6571 114.943 984 tokyo main 89 45 OOOO_____OOO__ jtwc_wp WP201964 21.9000 114.900 115 4 21.4000 115.000 9 984 0 0 0 21.3000 115.000 5 87 960 21.3000 115.000 SuperT 105 960 21.9000 114.900 TC 115 21.9000 114.900 4 115 21.9000 114.900 115 964 180 12 293
1964245N20132 1964 73 WP MM RUBY 1964-09-05 03:00:00 TS 21.8913 114.343 main 44 32 PPPP_____PPP__ WP201964 22.0998 114.285 117 4 21.4494 114.458 9 984 0 0 21.6923 114.415 5 82 960 21.6624 114.393 SuperT 105 960 22.0998 114.285 TC 117 22.1360 114.282 4 106 22.0998 114.285 117 964 180 12 293
1964245N20132 1964 73 WP MM RUBY 1964-09-05 06:00:00 TS 22.1292 113.745 984 tokyo main 23 0 OOOO_____OPO__ jtwc_wp WP201964 22.3000 113.700 120 4 21.5000 113.800 9 984 0 0 0 22.1000 113.800 4 77 960 22.1000 113.800 SuperT 105 960 22.3000 113.700 TC 120 22.3629 113.701 4 97 22.3000 113.700 120 965 180 13 295
1964245N20132 1964 73 WP MM RUBY 1964-09-05 09:00:00 TS 22.4149 113.117 main 0 0 PPPP_____PPP__ WP201964 22.5198 113.135 100 3 21.9356 112.917 9 988 0 0 22.4076 113.135 4 62 970 22.5023 113.235 SuperT 97 970 22.5198 113.135 TC 100 22.5835 113.145 4 88 22.5198 113.135 100 965 180 13 297
1964245N20132 1964 73 WP MM RUBY 1964-09-05 12:00:00 TS 22.7167 112.500 992 tokyo main 0 0 OOOO_____OOO__ jtwc_wp WP201964 22.8000 112.600 80 1 22.4000 112.000 9 992 0 0 0 22.7000 112.500 3 48 980 22.8000 112.700 ST 90 980 22.8000 112.600 TC 80 22.8000 112.600 4 80 22.8000 112.600 80 966 180 12 298
1964245N20132 1964 73 WP MM RUBY 1964-09-05 15:00:00 TS 22.9890 111.966 main 0 0 PPPP_____P_P__ WP201964 23.2055 112.212 60 0 22.4899 111.208 9 994 0 0 23.0648 111.948 3 35 987 22.8873 112.184 ST 75 987 23.2055 112.212 TC 60 4 23.1728 112.093 60 966 150 12 299
1964245N20132 1964 73 WP MM RUBY 1964-09-05 18:00:00 TS 23.2750 111.395 996 tokyo main 0 0 OOOO_____O_O__ jtwc_wp WP201964 23.6000 111.600 40 0 22.7000 110.600 9 996 0 0 0 23.4000 111.500 1 23 995 22.9000 111.700 STS 60 995 23.6000 111.600 TC 40 4 23.6000 111.600 40 967 120 14 295
1964245N20132 1964 73 WP MM RUBY 1964-09-05 21:00:00 TS 23.5595 110.612 main 0 0 PPPP_____P____ WP201964 23.7131 110.335 37 0 23.5120 110.233 9 999 0 0 23.5917 111.229 1 20 998 22.9752 111.243 STS 45 998 23.7131 110.335 TC 37 4 17 294
1964245N20132 1964 73 WP MM RUBY 1964-09-06 00:00:00 TS 23.9800 109.700 1002 tokyo main 0 0 OOOO_____O____ jtwc_wp WP201964 24.0000 109.000 35 0 24.4000 110.000 2 1002 0 0 0 23.8000 110.900 0 17 1002 23.1000 110.800 TD 30 1002 24.0000 109.000 TC 35 20 306
1964245N20132 1964 73 WP MM RUBY 1964-09-06 03:00:00 TS 24.7552 108.797 main 0 0 PPP______P____ WP201964 24.8630 108.182 32 -1 24.9252 109.760 2 1003 0 0 24.1539 110.292 0 17 1002 TD 24.8630 108.182 TC 32 23 319
1964245N20132 1964 73 WP MM RUBY 1964-09-06 06:00:00 MX 25.7250 108.000 1004 tokyo main 0 0 OOO______O____ jtwc_wp WP201964 26.0000 107.500 30 -1 25.2000 109.500 6 1004 0 0 0 24.6000 109.500 0 17 1002 26.0000 107.500 TC 30 30 321
1964245N20132 1964 73 WP MM RUBY 1964-09-06 09:00:00 TS 27.1220 106.701 main 0 0 P________P____ WP201964 27.1220 106.701 30 -1 6 0 0 0 27.1220 106.701 TC 30 32 322
1964245N20132 1964 73 WP MM RUBY 1964-09-06 12:00:00 TS 28.2000 105.800 main 0 O________O____ jtwc_wp WP201964 28.2000 105.800 30 -1 28.2000 105.800 TC 30 27 324

Digital Typhoon Data and Search

About IBTrACS Database

This database is a web-friendly format of International Best Track Archive for Climate Stewardship (IBTrACS), a global best track data archive curated by NOAA dating back to 1842.

Updated: 2021-12-03